createdAt,value
2022-12-09T00:01:50.165Z,6.50
2022-12-09T00:04:18.655Z,6.40
2022-12-09T00:06:46.859Z,6.30
2022-12-09T00:09:16.517Z,6.30
2022-12-09T00:11:45.284Z,6.40
2022-12-09T00:14:13.539Z,6.40
2022-12-09T00:16:43.067Z,6.30
2022-12-09T00:19:11.591Z,6.30
2022-12-09T00:21:39.937Z,6.30
2022-12-09T00:24:10.847Z,6.20
2022-12-09T00:26:39.442Z,6.30
2022-12-09T00:29:07.556Z,6.40
2022-12-09T00:31:39.299Z,6.30
2022-12-09T00:34:12.498Z,6.30
2022-12-09T00:36:41.010Z,6.20
2022-12-09T00:39:09.125Z,6.30
2022-12-09T00:41:37.226Z,6.30
2022-12-09T00:44:05.970Z,6.30
2022-12-09T00:46:34.118Z,6.30
2022-12-09T00:49:02.372Z,6.30
2022-12-09T00:51:31.737Z,6.20
2022-12-09T00:54:01.517Z,6.20
2022-12-09T00:56:30.996Z,6.20
2022-12-09T00:58:59.890Z,6.20
2022-12-09T01:01:28.694Z,6.20
2022-12-09T01:03:57.945Z,6.30
2022-12-09T01:06:27.595Z,6.40
2022-12-09T01:08:57.439Z,6.50
2022-12-09T01:11:27.159Z,6.40
2022-12-09T01:13:57.750Z,6.30
2022-12-09T01:16:28.367Z,6.20
2022-12-09T01:18:59.549Z,6.20
2022-12-09T01:21:28.408Z,6.20
2022-12-09T01:23:58.221Z,6.20
2022-12-09T01:26:26.621Z,6.10
2022-12-09T01:28:57.385Z,6.10
2022-12-09T01:31:26.213Z,6.30
2022-12-09T01:33:56.441Z,6.40
2022-12-09T01:36:28.020Z,6.40
2022-12-09T01:38:58.902Z,6.30
2022-12-09T01:41:28.920Z,6.30
2022-12-09T01:44:11.693Z,6.40
2022-12-09T01:46:40.214Z,6.40
2022-12-09T01:49:11.940Z,6.30
2022-12-09T01:51:41.233Z,6.40
2022-12-09T01:54:11.142Z,6.40
2022-12-09T01:56:41.614Z,6.30
2022-12-09T01:59:12.849Z,6.30
2022-12-09T02:01:42.526Z,6.20
2022-12-09T02:04:10.844Z,6.20
2022-12-09T02:06:39.904Z,6.10
2022-12-09T02:09:12.742Z,6.10
2022-12-09T02:11:55.790Z,6.10
2022-12-09T02:14:30.178Z,6.10
2022-12-09T02:17:15.416Z,6.10
2022-12-09T02:19:54.426Z,6.20
2022-12-09T02:22:28.392Z,6.30
2022-12-09T02:25:05.763Z,6.40
2022-12-09T02:27:38.874Z,6.40
2022-12-09T02:30:14.202Z,6.20
2022-12-09T02:33:01.321Z,6.10
2022-12-09T02:35:38.431Z,6.10
2022-12-09T02:38:11.729Z,6.10
2022-12-09T02:40:46.934Z,6.10
2022-12-09T02:43:16.720Z,6.10
2022-12-09T02:45:46.230Z,6.00
2022-12-09T02:48:19.193Z,6.00
2022-12-09T02:50:52.212Z,6.20
2022-12-09T02:53:21.941Z,6.30
2022-12-09T02:55:52.717Z,6.40
2022-12-09T02:58:21.879Z,6.30
2022-12-09T03:00:52.284Z,6.20
2022-12-09T03:03:20.548Z,6.30
2022-12-09T03:05:57.641Z,6.40
2022-12-09T03:08:32.625Z,6.40
2022-12-09T03:11:04.023Z,6.40
2022-12-09T03:13:49.201Z,6.40
2022-12-09T03:16:23.634Z,6.30
2022-12-09T03:18:57.987Z,6.30
2022-12-09T03:21:29.400Z,6.20
2022-12-09T03:23:59.557Z,6.30
2022-12-09T03:26:31.003Z,6.30
2022-12-09T03:29:01.272Z,6.30
2022-12-09T03:31:31.865Z,6.30
2022-12-09T03:34:04.115Z,6.30
2022-12-09T03:36:38.070Z,6.20
2022-12-09T03:39:10.512Z,6.10
2022-12-09T03:41:43.360Z,6.10
2022-12-09T03:44:17.901Z,6.10
2022-12-09T03:46:47.418Z,6.00
2022-12-09T03:49:16.557Z,6.10
2022-12-09T03:51:51.041Z,6.10
2022-12-09T03:54:23.568Z,6.00
2022-12-09T03:56:55.523Z,6.10
2022-12-09T03:59:25.073Z,6.10
2022-12-09T04:01:54.666Z,6.00
2022-12-09T04:04:23.573Z,6.00
2022-12-09T04:06:54.468Z,6.10
2022-12-09T04:09:23.110Z,6.20
2022-12-09T04:11:51.714Z,6.20
2022-12-09T04:14:19.941Z,6.30
2022-12-09T04:16:48.465Z,6.20
2022-12-09T04:19:17.265Z,6.10
2022-12-09T04:21:45.605Z,6.10
2022-12-09T04:24:15.070Z,6.30
2022-12-09T04:26:43.186Z,6.20
2022-12-09T04:29:11.501Z,6.10
2022-12-09T04:31:40.562Z,6.00
2022-12-09T04:34:09.838Z,6.10
2022-12-09T04:36:38.724Z,6.10
2022-12-09T04:39:07.510Z,6.00
2022-12-09T04:41:37.598Z,6.10
2022-12-09T04:44:06.397Z,6.20
2022-12-09T04:46:35.033Z,6.30
2022-12-09T04:49:03.406Z,6.30
2022-12-09T04:51:37.480Z,6.30
2022-12-09T04:54:07.745Z,6.30
2022-12-09T04:56:37.519Z,6.30
2022-12-09T04:59:06.544Z,6.30
2022-12-09T05:01:34.805Z,6.30
2022-12-09T05:04:03.430Z,6.30
2022-12-09T05:06:32.038Z,6.40
2022-12-09T05:09:00.409Z,6.40
2022-12-09T05:11:28.946Z,6.30
2022-12-09T05:13:58.556Z,6.30
2022-12-09T05:16:27.198Z,6.30
2022-12-09T05:18:56.131Z,6.40
2022-12-09T05:21:24.381Z,6.40
2022-12-09T05:23:52.881Z,6.40
2022-12-09T05:26:23.438Z,6.50
2022-12-09T05:28:52.402Z,6.40
2022-12-09T05:31:23.999Z,6.30
2022-12-09T05:33:53.237Z,6.30
2022-12-09T05:36:25.205Z,6.40
2022-12-09T05:38:54.072Z,6.40
2022-12-09T05:41:23.802Z,6.40
2022-12-09T05:43:52.665Z,6.40
2022-12-09T05:46:22.612Z,6.30
2022-12-09T05:48:51.235Z,6.30
2022-12-09T05:51:24.060Z,6.40
2022-12-09T05:53:53.297Z,6.30
2022-12-09T05:56:24.271Z,6.40
2022-12-09T05:58:53.990Z,6.40
2022-12-09T06:01:24.349Z,6.40
2022-12-09T06:03:54.228Z,6.50
2022-12-09T06:06:26.517Z,6.50
2022-12-09T06:08:57.947Z,6.50
2022-12-09T06:11:27.049Z,6.40
2022-12-09T06:13:55.583Z,6.40
2022-12-09T06:16:26.078Z,6.40
2022-12-09T06:18:55.021Z,6.40
2022-12-09T06:21:23.828Z,6.40
2022-12-09T06:23:52.883Z,6.50
2022-12-09T06:26:23.862Z,6.40
2022-12-09T06:28:52.846Z,6.40
2022-12-09T06:31:22.472Z,6.40
2022-12-09T06:33:56.057Z,6.40
2022-12-09T06:36:26.134Z,6.40
2022-12-09T06:38:54.908Z,6.50
2022-12-09T06:41:23.965Z,6.50
2022-12-09T06:43:52.749Z,6.40
2022-12-09T06:46:24.603Z,6.50
2022-12-09T06:48:55.996Z,6.40
2022-12-09T06:51:26.838Z,6.40
2022-12-09T06:53:57.388Z,6.40
2022-12-09T06:56:26.379Z,6.40
2022-12-09T06:58:54.825Z,6.50
2022-12-09T07:01:26.040Z,6.40
2022-12-09T07:03:58.406Z,6.40
2022-12-09T07:06:29.921Z,6.40
2022-12-09T07:09:00.901Z,6.40
2022-12-09T07:11:30.159Z,6.50
2022-12-09T07:13:58.955Z,6.40
2022-12-09T07:16:28.482Z,6.40
2022-12-09T07:18:59.371Z,6.30
2022-12-09T07:21:28.516Z,6.40
2022-12-09T07:23:59.467Z,6.40
2022-12-09T07:26:28.583Z,6.40
2022-12-09T07:28:57.250Z,6.40
2022-12-09T07:31:28.586Z,6.50
2022-12-09T07:33:59.958Z,6.40
2022-12-09T07:36:29.697Z,6.40
2022-12-09T07:38:58.634Z,6.40
2022-12-09T07:41:27.432Z,6.40
2022-12-09T07:43:56.514Z,6.40
2022-12-09T07:46:27.554Z,6.50
2022-12-09T07:48:57.352Z,6.50
2022-12-09T07:51:27.552Z,6.50
2022-12-09T07:53:56.390Z,6.40
2022-12-09T07:56:25.572Z,6.40
2022-12-09T07:58:54.545Z,6.40
2022-12-09T08:01:25.518Z,6.40
2022-12-09T08:03:54.807Z,6.40
2022-12-09T08:06:25.163Z,6.50
2022-12-09T08:08:55.747Z,6.50
2022-12-09T08:11:25.669Z,6.50
2022-12-09T08:13:56.516Z,6.50
2022-12-09T08:16:25.745Z,6.40
2022-12-09T08:18:54.802Z,6.40
2022-12-09T08:21:26.226Z,6.50
2022-12-09T08:23:56.967Z,6.50
2022-12-09T08:26:27.127Z,6.50
2022-12-09T08:28:55.800Z,6.40
2022-12-09T08:31:25.883Z,6.50
2022-12-09T08:33:55.008Z,6.60
2022-12-09T08:36:25.580Z,6.50
2022-12-09T08:38:56.203Z,6.50
2022-12-09T08:41:35.440Z,6.50
2022-12-09T08:44:05.463Z,6.40
2022-12-09T08:46:35.610Z,6.50
2022-12-09T08:49:05.353Z,6.50
2022-12-09T08:51:34.437Z,6.50
2022-12-09T08:54:05.809Z,6.60
2022-12-09T08:56:34.499Z,6.50
2022-12-09T08:59:03.057Z,6.50
2022-12-09T09:01:34.865Z,6.50
2022-12-09T09:04:08.090Z,6.50
2022-12-09T09:06:37.438Z,6.60
2022-12-09T09:09:08.121Z,6.60
2022-12-09T09:11:36.685Z,6.70
2022-12-09T09:14:06.734Z,6.70
2022-12-09T09:16:36.366Z,6.70
2022-12-09T09:19:05.950Z,6.70
2022-12-09T09:21:35.551Z,6.60
2022-12-09T09:24:08.681Z,6.60
2022-12-09T09:26:41.466Z,6.70
2022-12-09T09:29:11.821Z,6.80
2022-12-09T09:31:40.190Z,6.90
2022-12-09T09:34:09.221Z,6.90
2022-12-09T09:36:37.725Z,7.00
2022-12-09T09:39:06.123Z,7.20
2022-12-09T09:41:44.623Z,7.20
2022-12-09T09:44:24.074Z,7.20
2022-12-09T09:46:54.572Z,7.10
2022-12-09T09:49:29.780Z,7.10
2022-12-09T09:51:58.504Z,7.10
2022-12-09T09:54:26.851Z,7.00
2022-12-09T09:57:02.301Z,6.90
2022-12-09T09:59:40.516Z,7.00
2022-12-09T10:02:19.768Z,7.00
2022-12-09T10:05:06.047Z,7.00
2022-12-09T10:07:40.115Z,7.00
2022-12-09T10:10:20.751Z,7.00
2022-12-09T10:13:09.526Z,6.90
2022-12-09T10:15:49.654Z,6.90
2022-12-09T10:18:25.926Z,6.90
2022-12-09T10:20:54.733Z,6.80
2022-12-09T10:23:24.420Z,6.80
2022-12-09T10:25:56.651Z,6.70
2022-12-09T10:28:29.929Z,6.80
2022-12-09T10:30:58.883Z,6.80
2022-12-09T10:33:30.536Z,6.80
2022-12-09T10:35:59.217Z,6.80
2022-12-09T10:38:30.292Z,6.80
2022-12-09T10:41:03.717Z,6.80
2022-12-09T10:43:35.221Z,6.80
2022-12-09T10:46:22.910Z,6.80
2022-12-09T10:48:59.052Z,7.00
2022-12-09T10:51:30.041Z,7.00
2022-12-09T10:54:02.907Z,7.00
2022-12-09T10:56:34.252Z,7.10
2022-12-09T10:59:29.926Z,7.00
2022-12-09T11:02:01.579Z,6.90
2022-12-09T11:04:31.788Z,6.90
2022-12-09T11:07:05.109Z,6.90
2022-12-09T11:09:35.771Z,7.00
2022-12-09T11:12:07.872Z,7.10
2022-12-09T11:14:40.575Z,7.10
2022-12-09T11:17:16.112Z,7.10
2022-12-09T11:19:47.803Z,7.10
2022-12-09T11:22:39.520Z,7.20
2022-12-09T11:25:21.780Z,7.10
2022-12-09T11:27:53.114Z,7.10
2022-12-09T11:30:26.860Z,7.10
2022-12-09T11:33:03.357Z,7.00
2022-12-09T11:35:37.358Z,7.10
2022-12-09T11:38:17.238Z,7.00
2022-12-09T11:40:58.502Z,7.00
2022-12-09T11:43:32.783Z,7.00
2022-12-09T11:46:03.535Z,7.00
2022-12-09T11:48:41.662Z,7.10
2022-12-09T11:51:21.803Z,7.10
2022-12-09T11:53:51.755Z,7.20
2022-12-09T11:56:25.662Z,7.10
2022-12-09T11:58:59.555Z,7.10
2022-12-09T12:01:37.900Z,7.10
2022-12-09T12:04:11.065Z,7.00
2022-12-09T12:06:46.702Z,6.90
2022-12-09T12:09:22.126Z,6.90
2022-12-09T12:11:58.508Z,7.00
2022-12-09T12:14:30.082Z,6.80
2022-12-09T12:17:08.268Z,6.80
2022-12-09T12:19:39.087Z,6.80
2022-12-09T12:22:34.268Z,6.90
2022-12-09T12:25:28.742Z,7.00
2022-12-09T12:28:17.943Z,7.00
2022-12-09T12:30:54.305Z,6.90
2022-12-09T12:34:16.034Z,7.00
2022-12-09T12:36:47.074Z,6.90
2022-12-09T12:39:28.509Z,6.90
2022-12-09T12:42:03.514Z,6.80
2022-12-09T12:45:01.429Z,6.90
2022-12-09T12:47:35.236Z,6.90
2022-12-09T12:50:38.674Z,7.00
2022-12-09T12:53:16.191Z,7.00
2022-12-09T12:56:00.278Z,7.10
2022-12-09T12:58:47.065Z,7.10
2022-12-09T13:01:21.657Z,7.00
2022-12-09T13:04:01.033Z,7.10
2022-12-09T13:06:38.865Z,7.00
2022-12-09T13:09:13.807Z,7.10
2022-12-09T13:11:55.724Z,7.10
2022-12-09T13:14:32.296Z,7.10
2022-12-09T13:17:02.787Z,7.10
2022-12-09T13:19:38.793Z,7.10
2022-12-09T13:22:15.336Z,7.10
2022-12-09T13:24:55.423Z,7.20
2022-12-09T13:27:36.451Z,7.20
2022-12-09T13:30:10.267Z,7.20
2022-12-09T13:33:11.601Z,7.20
2022-12-09T13:35:44.893Z,7.30
2022-12-09T13:38:27.777Z,7.30
2022-12-09T13:40:55.754Z,7.20
2022-12-09T13:43:27.104Z,7.20
2022-12-09T13:45:57.925Z,7.10
2022-12-09T13:48:54.008Z,7.10
2022-12-09T13:51:23.508Z,7.10
2022-12-09T13:54:02.215Z,7.20
2022-12-09T13:56:32.925Z,7.20
2022-12-09T13:59:39.797Z,7.00
2022-12-09T14:02:24.633Z,7.00
2022-12-09T14:05:02.483Z,6.90
2022-12-09T14:07:36.864Z,6.90
2022-12-09T14:10:07.929Z,6.90
2022-12-09T14:13:06.044Z,6.90
2022-12-09T14:15:40.624Z,6.90
2022-12-09T14:18:29.804Z,6.90
2022-12-09T14:21:22.978Z,6.80
2022-12-09T14:24:28.650Z,6.80
2022-12-09T14:27:13.278Z,6.80
2022-12-09T14:29:52.467Z,6.80
2022-12-09T14:32:26.378Z,6.90
2022-12-09T14:35:07.805Z,6.80
2022-12-09T14:37:46.563Z,6.80
2022-12-09T14:40:39.704Z,6.80
2022-12-09T14:43:22.168Z,6.70
2022-12-09T14:45:52.777Z,6.70
2022-12-09T14:48:24.841Z,6.60
2022-12-09T14:51:08.362Z,6.60
2022-12-09T14:53:38.593Z,6.50
2022-12-09T14:56:07.269Z,6.60
2022-12-09T14:58:36.685Z,6.50
2022-12-09T15:01:07.085Z,6.50
2022-12-09T15:03:42.916Z,6.50
2022-12-09T15:06:18.388Z,6.40
2022-12-09T15:08:46.738Z,6.40
2022-12-09T15:11:17.896Z,6.40
2022-12-09T15:13:50.171Z,6.40
2022-12-09T15:16:24.262Z,6.30
2022-12-09T15:18:53.703Z,6.30
2022-12-09T15:21:29.345Z,6.30
2022-12-09T15:23:58.439Z,6.30
2022-12-09T15:26:29.332Z,6.30
2022-12-09T15:28:59.388Z,6.30
2022-12-09T15:31:29.444Z,6.20
2022-12-09T15:33:59.467Z,6.30
2022-12-09T15:36:30.923Z,6.20
2022-12-09T15:39:02.894Z,6.20
2022-12-09T15:41:52.350Z,6.20
2022-12-09T15:44:24.920Z,6.20
2022-12-09T15:46:56.038Z,6.20
2022-12-09T15:49:27.506Z,6.20
2022-12-09T15:51:57.155Z,6.20
2022-12-09T15:54:30.578Z,6.20
2022-12-09T15:57:00.973Z,6.10
2022-12-09T15:59:34.654Z,6.10
2022-12-09T16:02:02.954Z,6.10
2022-12-09T16:04:35.724Z,6.10
2022-12-09T16:07:07.786Z,6.00
2022-12-09T16:09:36.704Z,6.00
2022-12-09T16:12:05.927Z,6.00
2022-12-09T16:14:44.591Z,6.10
2022-12-09T16:17:22.943Z,6.00
2022-12-09T16:19:51.579Z,6.10
2022-12-09T16:22:24.872Z,6.20
2022-12-09T16:25:14.233Z,6.20
2022-12-09T16:27:48.374Z,6.20
2022-12-09T16:30:20.367Z,6.10
2022-12-09T16:32:51.218Z,6.10
2022-12-09T16:35:25.084Z,6.00
2022-12-09T16:38:19.756Z,6.00
2022-12-09T16:41:09.118Z,6.00
2022-12-09T16:43:38.210Z,6.10
2022-12-09T16:46:37.336Z,6.00
2022-12-09T16:49:05.427Z,6.00
2022-12-09T16:51:34.049Z,5.90
2022-12-09T16:54:02.720Z,6.00
2022-12-09T16:56:32.681Z,6.00
2022-12-09T16:59:00.862Z,6.00
2022-12-09T17:01:33.801Z,6.00
2022-12-09T17:04:05.411Z,6.00
2022-12-09T17:06:33.908Z,5.90
2022-12-09T17:09:02.166Z,5.90
2022-12-09T17:11:30.446Z,5.90
2022-12-09T17:13:58.516Z,5.80
2022-12-09T17:16:27.966Z,5.70
2022-12-09T17:18:56.383Z,5.70
2022-12-09T17:21:26.099Z,5.80
2022-12-09T17:23:54.132Z,5.90
2022-12-09T17:26:22.413Z,5.90
2022-12-09T17:28:54.528Z,5.90
2022-12-09T17:31:26.293Z,5.90
2022-12-09T17:33:56.646Z,5.80
2022-12-09T17:36:26.017Z,5.80
2022-12-09T17:38:54.087Z,5.70
2022-12-09T17:41:23.726Z,5.80
2022-12-09T17:43:51.888Z,5.80
2022-12-09T17:46:21.470Z,5.70
2022-12-09T17:48:49.520Z,5.70
2022-12-09T17:51:18.370Z,5.80
2022-12-09T17:53:50.108Z,5.80
2022-12-09T17:56:20.700Z,5.80
2022-12-09T17:58:49.541Z,5.80
2022-12-09T18:01:19.804Z,5.80
2022-12-09T18:03:56.826Z,5.70
2022-12-09T18:06:26.118Z,5.70
2022-12-09T18:08:55.666Z,5.80
2022-12-09T18:11:24.056Z,5.70
2022-12-09T18:13:52.205Z,5.70
2022-12-09T18:16:21.194Z,5.70
2022-12-09T18:18:49.295Z,5.70
2022-12-09T18:21:19.502Z,5.70
2022-12-09T18:23:48.156Z,5.70
2022-12-09T18:26:19.114Z,5.70
2022-12-09T18:28:47.192Z,5.60
2022-12-09T18:31:18.981Z,5.60
2022-12-09T18:33:47.218Z,5.70
2022-12-09T18:36:17.258Z,5.70
2022-12-09T18:38:45.677Z,5.60
2022-12-09T18:41:15.271Z,5.70
2022-12-09T18:43:46.731Z,5.70
2022-12-09T18:46:19.388Z,5.70
2022-12-09T18:48:56.434Z,5.70
2022-12-09T18:51:24.495Z,5.70
2022-12-09T18:53:52.640Z,5.70
2022-12-09T18:56:20.763Z,5.60
2022-12-09T18:59:05.899Z,5.60
2022-12-09T19:01:39.034Z,5.70
2022-12-09T19:04:08.764Z,5.80
2022-12-09T19:06:38.491Z,5.70
2022-12-09T19:09:08.567Z,5.70
2022-12-09T19:11:38.626Z,5.70
2022-12-09T19:14:08.882Z,5.70
2022-12-09T19:16:37.502Z,5.70
2022-12-09T19:19:10.112Z,5.70
2022-12-09T19:21:39.364Z,5.60
2022-12-09T19:24:08.526Z,5.60
2022-12-09T19:26:37.550Z,5.60
2022-12-09T19:29:08.692Z,5.60
2022-12-09T19:31:39.579Z,5.70
2022-12-09T19:34:09.870Z,5.70
2022-12-09T19:36:37.918Z,5.70
2022-12-09T19:39:08.129Z,5.70
2022-12-09T19:41:36.728Z,5.70
2022-12-09T19:44:05.840Z,5.70
2022-12-09T19:46:36.701Z,5.40
2022-12-09T19:49:05.092Z,5.30
2022-12-09T19:51:33.165Z,5.30
2022-12-09T19:54:02.316Z,5.40
2022-12-09T19:56:32.464Z,5.50
2022-12-09T19:59:00.814Z,5.60
2022-12-09T20:01:31.305Z,5.60
2022-12-09T20:04:19.115Z,5.50
2022-12-09T20:06:51.656Z,5.60
2022-12-09T20:09:24.298Z,5.60
2022-12-09T20:11:52.859Z,5.60
2022-12-09T20:14:20.979Z,5.60
2022-12-09T20:16:49.040Z,5.60
2022-12-09T20:19:19.683Z,5.50
2022-12-09T20:21:47.707Z,5.40
2022-12-09T20:24:15.692Z,5.60
2022-12-09T20:26:44.284Z,5.50
2022-12-09T20:29:12.627Z,5.50
2022-12-09T20:31:42.509Z,5.50
2022-12-09T20:34:14.303Z,5.50
2022-12-09T20:36:45.202Z,5.50
2022-12-09T20:39:15.652Z,5.50
2022-12-09T20:41:44.498Z,5.50
2022-12-09T20:44:13.815Z,5.50
2022-12-09T20:46:45.863Z,5.60
2022-12-09T20:49:13.889Z,5.60
2022-12-09T20:51:45.277Z,5.50
2022-12-09T20:54:13.895Z,5.50
2022-12-09T20:56:42.032Z,5.60
2022-12-09T20:59:11.560Z,5.70
2022-12-09T21:01:39.983Z,5.70
2022-12-09T21:04:08.608Z,5.60
2022-12-09T21:06:39.205Z,5.50
2022-12-09T21:09:10.421Z,5.60
2022-12-09T21:11:38.887Z,5.60
2022-12-09T21:14:08.215Z,5.60
2022-12-09T21:16:40.031Z,5.60
2022-12-09T21:19:10.539Z,5.60
2022-12-09T21:21:40.301Z,5.70
2022-12-09T21:24:11.808Z,5.60
2022-12-09T21:26:40.334Z,5.60
2022-12-09T21:29:09.320Z,5.60
2022-12-09T21:31:40.786Z,5.60
2022-12-09T21:34:10.249Z,5.60
2022-12-09T21:36:42.530Z,5.50
2022-12-09T21:39:14.268Z,5.60
2022-12-09T21:41:43.128Z,5.60
2022-12-09T21:44:15.664Z,5.50
2022-12-09T21:46:43.931Z,5.50
2022-12-09T21:49:12.658Z,5.50
2022-12-09T21:51:42.280Z,5.50
2022-12-09T21:54:11.622Z,5.60
2022-12-09T21:56:39.603Z,5.60
2022-12-09T21:59:08.381Z,5.60
2022-12-09T22:01:38.399Z,5.50
2022-12-09T22:04:09.984Z,5.50
2022-12-09T22:06:38.617Z,5.60
2022-12-09T22:09:08.390Z,5.60
2022-12-09T22:11:39.529Z,5.60
2022-12-09T22:14:09.762Z,5.50
2022-12-09T22:16:40.050Z,5.60
2022-12-09T22:19:09.898Z,5.50
2022-12-09T22:21:38.177Z,5.40
2022-12-09T22:24:09.227Z,5.40
2022-12-09T22:26:39.757Z,5.40
2022-12-09T22:29:08.610Z,5.50
2022-12-09T22:31:38.537Z,5.40
2022-12-09T22:34:09.009Z,5.40
2022-12-09T22:36:37.783Z,5.40
2022-12-09T22:39:07.602Z,5.40
2022-12-09T22:41:36.408Z,5.40
2022-12-09T22:44:06.273Z,5.40
2022-12-09T22:46:35.339Z,5.40
2022-12-09T22:49:07.151Z,5.40
2022-12-09T22:51:37.045Z,5.40
2022-12-09T22:54:08.067Z,5.40
2022-12-09T22:56:38.032Z,5.40
2022-12-09T22:59:07.721Z,5.40
2022-12-09T23:01:37.731Z,5.40
2022-12-09T23:04:07.355Z,5.50
2022-12-09T23:06:36.183Z,5.40
2022-12-09T23:09:04.824Z,5.50
2022-12-09T23:11:32.826Z,5.50
2022-12-09T23:14:01.141Z,5.50
2022-12-09T23:16:30.706Z,5.50
2022-12-09T23:18:59.552Z,5.60
2022-12-09T23:21:29.377Z,5.50
2022-12-09T23:23:59.883Z,5.50
2022-12-09T23:26:30.075Z,5.50
2022-12-09T23:29:02.437Z,5.60
2022-12-09T23:31:33.890Z,5.50
2022-12-09T23:34:03.994Z,5.50
2022-12-09T23:36:34.399Z,5.60
2022-12-09T23:39:03.603Z,5.50
2022-12-09T23:41:32.089Z,5.50
2022-12-09T23:44:00.094Z,5.50
2022-12-09T23:46:31.062Z,5.40
2022-12-09T23:48:59.243Z,5.40
2022-12-09T23:51:29.005Z,5.50
2022-12-09T23:53:58.416Z,5.50
2022-12-09T23:56:28.377Z,5.50
2022-12-09T23:58:58.096Z,5.50
